sensor_id;sensor_type;location;lat;lon;timestamp;P1;durP1;ratioP1;P2;durP2;ratioP2
16804;SDS011;8520;50.102;20.010;2022-07-29T00:02:03;5.18;;;4.78;;
16804;SDS011;8520;50.102;20.010;2022-07-29T00:04:51;5.25;;;4.75;;
16804;SDS011;8520;50.102;20.010;2022-07-29T00:07:40;5.45;;;4.95;;
16804;SDS011;8520;50.102;20.010;2022-07-29T00:10:28;5.90;;;4.78;;
16804;SDS011;8520;50.102;20.010;2022-07-29T00:13:17;5.63;;;5.05;;
16804;SDS011;8520;50.102;20.010;2022-07-29T00:16:19;4.70;;;4.40;;
16804;SDS011;8520;50.102;20.010;2022-07-29T00:19:08;6.28;;;4.75;;
16804;SDS011;8520;50.102;20.010;2022-07-29T00:21:58;5.53;;;5.00;;
16804;SDS011;8520;50.102;20.010;2022-07-29T00:24:46;5.90;;;4.95;;
16804;SDS011;8520;50.102;20.010;2022-07-29T00:27:35;5.13;;;4.63;;
16804;SDS011;8520;50.102;20.010;2022-07-29T00:30:24;7.65;;;5.00;;
16804;SDS011;8520;50.102;20.010;2022-07-29T00:33:13;5.13;;;4.75;;
16804;SDS011;8520;50.102;20.010;2022-07-29T00:36:02;5.70;;;4.82;;
16804;SDS011;8520;50.102;20.010;2022-07-29T00:38:50;5.35;;;4.90;;
16804;SDS011;8520;50.102;20.010;2022-07-29T00:41:39;4.97;;;4.68;;
16804;SDS011;8520;50.102;20.010;2022-07-29T00:44:27;5.05;;;4.65;;
16804;SDS011;8520;50.102;20.010;2022-07-29T00:47:15;5.93;;;5.30;;
16804;SDS011;8520;50.102;20.010;2022-07-29T00:50:05;5.57;;;5.10;;
16804;SDS011;8520;50.102;20.010;2022-07-29T00:52:55;5.53;;;5.03;;
16804;SDS011;8520;50.102;20.010;2022-07-29T00:55:44;5.25;;;4.85;;
16804;SDS011;8520;50.102;20.010;2022-07-29T00:58:32;5.68;;;4.82;;
16804;SDS011;8520;50.102;20.010;2022-07-29T01:01:20;5.00;;;4.50;;
16804;SDS011;8520;50.102;20.010;2022-07-29T01:04:09;5.07;;;4.68;;
16804;SDS011;8520;50.102;20.010;2022-07-29T01:07:02;4.78;;;4.47;;
16804;SDS011;8520;50.102;20.010;2022-07-29T01:09:51;5.47;;;5.07;;
16804;SDS011;8520;50.102;20.010;2022-07-29T01:12:41;5.00;;;4.70;;
16804;SDS011;8520;50.102;20.010;2022-07-29T01:15:32;5.30;;;4.90;;
16804;SDS011;8520;50.102;20.010;2022-07-29T01:18:37;5.13;;;4.82;;
16804;SDS011;8520;50.102;20.010;2022-07-29T01:21:38;4.90;;;4.50;;
16804;SDS011;8520;50.102;20.010;2022-07-29T01:24:49;5.30;;;4.90;;
16804;SDS011;8520;50.102;20.010;2022-07-29T01:28:01;5.05;;;4.75;;
16804;SDS011;8520;50.102;20.010;2022-07-29T01:31:03;5.45;;;5.05;;
16804;SDS011;8520;50.102;20.010;2022-07-29T01:33:57;6.40;;;5.32;;
16804;SDS011;8520;50.102;20.010;2022-07-29T01:36:51;4.65;;;4.35;;
16804;SDS011;8520;50.102;20.010;2022-07-29T01:39:48;4.63;;;4.32;;
16804;SDS011;8520;50.102;20.010;2022-07-29T01:42:41;5.13;;;4.78;;
16804;SDS011;8520;50.102;20.010;2022-07-29T01:45:33;5.03;;;4.72;;
16804;SDS011;8520;50.102;20.010;2022-07-29T01:48:30;4.95;;;4.65;;
16804;SDS011;8520;50.102;20.010;2022-07-29T01:51:25;6.65;;;5.38;;
16804;SDS011;8520;50.102;20.010;2022-07-29T01:54:20;5.63;;;5.10;;
16804;SDS011;8520;50.102;20.010;2022-07-29T01:57:21;5.80;;;5.40;;
16804;SDS011;8520;50.102;20.010;2022-07-29T02:00:16;8.13;;;5.32;;
16804;SDS011;8520;50.102;20.010;2022-07-29T02:03:07;5.20;;;4.70;;
16804;SDS011;8520;50.102;20.010;2022-07-29T02:06:00;5.45;;;4.95;;
16804;SDS011;8520;50.102;20.010;2022-07-29T02:08:52;5.30;;;4.90;;
16804;SDS011;8520;50.102;20.010;2022-07-29T02:11:42;5.00;;;4.53;;
16804;SDS011;8520;50.102;20.010;2022-07-29T02:14:38;5.47;;;4.97;;
16804;SDS011;8520;50.102;20.010;2022-07-29T02:17:31;5.15;;;4.70;;
16804;SDS011;8520;50.102;20.010;2022-07-29T02:20:26;4.97;;;4.70;;
16804;SDS011;8520;50.102;20.010;2022-07-29T02:23:18;5.30;;;4.85;;
16804;SDS011;8520;50.102;20.010;2022-07-29T02:26:08;5.55;;;5.15;;
16804;SDS011;8520;50.102;20.010;2022-07-29T02:28:57;5.20;;;4.88;;
16804;SDS011;8520;50.102;20.010;2022-07-29T02:31:48;4.80;;;4.50;;
16804;SDS011;8520;50.102;20.010;2022-07-29T02:34:38;5.50;;;5.00;;
16804;SDS011;8520;50.102;20.010;2022-07-29T02:37:29;5.05;;;4.75;;
16804;SDS011;8520;50.102;20.010;2022-07-29T02:40:21;5.20;;;4.78;;
16804;SDS011;8520;50.102;20.010;2022-07-29T02:43:09;5.25;;;4.90;;
16804;SDS011;8520;50.102;20.010;2022-07-29T02:45:59;5.10;;;4.80;;
16804;SDS011;8520;50.102;20.010;2022-07-29T02:48:59;4.93;;;4.53;;
16804;SDS011;8520;50.102;20.010;2022-07-29T02:51:54;5.38;;;5.07;;
16804;SDS011;8520;50.102;20.010;2022-07-29T02:54:46;5.43;;;5.00;;
16804;SDS011;8520;50.102;20.010;2022-07-29T02:57:44;4.95;;;4.50;;
16804;SDS011;8520;50.102;20.010;2022-07-29T03:00:41;5.13;;;4.70;;
16804;SDS011;8520;50.102;20.010;2022-07-29T03:03:34;4.97;;;4.68;;
16804;SDS011;8520;50.102;20.010;2022-07-29T03:06:25;5.63;;;5.10;;
16804;SDS011;8520;50.102;20.010;2022-07-29T03:09:24;5.45;;;4.95;;
16804;SDS011;8520;50.102;20.010;2022-07-29T03:12:14;5.35;;;4.95;;
16804;SDS011;8520;50.102;20.010;2022-07-29T03:15:06;4.65;;;4.45;;
16804;SDS011;8520;50.102;20.010;2022-07-29T03:17:55;7.35;;;4.70;;
16804;SDS011;8520;50.102;20.010;2022-07-29T03:20:44;5.43;;;4.65;;
16804;SDS011;8520;50.102;20.010;2022-07-29T03:23:33;4.72;;;4.43;;
16804;SDS011;8520;50.102;20.010;2022-07-29T03:26:22;5.30;;;4.97;;
16804;SDS011;8520;50.102;20.010;2022-07-29T03:29:11;5.50;;;4.70;;
16804;SDS011;8520;50.102;20.010;2022-07-29T03:32:01;5.05;;;4.63;;
16804;SDS011;8520;50.102;20.010;2022-07-29T03:34:54;4.78;;;4.47;;
16804;SDS011;8520;50.102;20.010;2022-07-29T03:37:43;4.85;;;4.45;;
16804;SDS011;8520;50.102;20.010;2022-07-29T03:40:33;5.38;;;4.85;;
16804;SDS011;8520;50.102;20.010;2022-07-29T03:43:25;5.15;;;4.57;;
16804;SDS011;8520;50.102;20.010;2022-07-29T03:46:18;7.07;;;4.85;;
16804;SDS011;8520;50.102;20.010;2022-07-29T03:49:11;5.18;;;4.68;;
16804;SDS011;8520;50.102;20.010;2022-07-29T03:52:03;5.32;;;4.65;;
16804;SDS011;8520;50.102;20.010;2022-07-29T03:54:53;5.30;;;5.00;;
16804;SDS011;8520;50.102;20.010;2022-07-29T03:57:42;5.60;;;5.20;;
16804;SDS011;8520;50.102;20.010;2022-07-29T04:00:32;6.20;;;5.20;;
16804;SDS011;8520;50.102;20.010;2022-07-29T04:03:22;5.38;;;4.90;;
16804;SDS011;8520;50.102;20.010;2022-07-29T04:06:12;8.30;;;4.90;;
16804;SDS011;8520;50.102;20.010;2022-07-29T04:09:00;6.10;;;5.10;;
16804;SDS011;8520;50.102;20.010;2022-07-29T04:11:48;4.90;;;4.50;;
16804;SDS011;8520;50.102;20.010;2022-07-29T04:14:49;5.43;;;4.95;;
16804;SDS011;8520;50.102;20.010;2022-07-29T04:17:38;5.32;;;4.78;;
16804;SDS011;8520;50.102;20.010;2022-07-29T04:20:26;6.55;;;5.05;;
16804;SDS011;8520;50.102;20.010;2022-07-29T04:23:16;5.95;;;5.55;;
16804;SDS011;8520;50.102;20.010;2022-07-29T04:27:19;5.15;;;4.65;;
16804;SDS011;8520;50.102;20.010;2022-07-29T04:30:08;6.18;;;5.53;;
16804;SDS011;8520;50.102;20.010;2022-07-29T04:32:56;4.72;;;4.43;;
16804;SDS011;8520;50.102;20.010;2022-07-29T04:35:45;5.32;;;4.38;;
16804;SDS011;8520;50.102;20.010;2022-07-29T04:38:38;4.80;;;4.40;;
16804;SDS011;8520;50.102;20.010;2022-07-29T04:41:27;4.45;;;4.15;;
16804;SDS011;8520;50.102;20.010;2022-07-29T04:44:20;4.85;;;4.43;;
16804;SDS011;8520;50.102;20.010;2022-07-29T04:47:14;4.80;;;4.20;;
16804;SDS011;8520;50.102;20.010;2022-07-29T04:50:03;6.68;;;5.32;;
16804;SDS011;8520;50.102;20.010;2022-07-29T04:52:52;5.47;;;4.97;;
16804;SDS011;8520;50.102;20.010;2022-07-29T04:55:41;4.10;;;3.80;;
16804;SDS011;8520;50.102;20.010;2022-07-29T04:58:29;4.93;;;4.00;;
16804;SDS011;8520;50.102;20.010;2022-07-29T05:01:19;4.75;;;4.35;;
16804;SDS011;8520;50.102;20.010;2022-07-29T05:04:08;6.53;;;4.38;;
16804;SDS011;8520;50.102;20.010;2022-07-29T05:06:56;5.13;;;4.28;;
16804;SDS011;8520;50.102;20.010;2022-07-29T05:09:45;9.45;;;3.70;;
16804;SDS011;8520;50.102;20.010;2022-07-29T05:12:33;18.15;;;5.68;;
16804;SDS011;8520;50.102;20.010;2022-07-29T05:15:21;9.73;;;4.53;;
16804;SDS011;8520;50.102;20.010;2022-07-29T05:18:11;7.10;;;4.47;;
16804;SDS011;8520;50.102;20.010;2022-07-29T05:21:00;17.00;;;5.30;;
16804;SDS011;8520;50.102;20.010;2022-07-29T05:23:49;9.95;;;4.15;;
16804;SDS011;8520;50.102;20.010;2022-07-29T05:26:38;10.35;;;4.53;;
16804;SDS011;8520;50.102;20.010;2022-07-29T05:29:26;7.10;;;4.55;;
16804;SDS011;8520;50.102;20.010;2022-07-29T05:32:30;7.05;;;4.20;;
16804;SDS011;8520;50.102;20.010;2022-07-29T05:35:20;8.30;;;4.30;;
16804;SDS011;8520;50.102;20.010;2022-07-29T05:38:09;11.50;;;4.55;;
16804;SDS011;8520;50.102;20.010;2022-07-29T05:40:57;6.05;;;3.83;;
16804;SDS011;8520;50.102;20.010;2022-07-29T05:43:46;4.65;;;3.65;;
16804;SDS011;8520;50.102;20.010;2022-07-29T05:46:35;4.50;;;3.85;;
16804;SDS011;8520;50.102;20.010;2022-07-29T05:49:23;4.00;;;3.70;;
16804;SDS011;8520;50.102;20.010;2022-07-29T05:52:14;4.50;;;4.00;;
16804;SDS011;8520;50.102;20.010;2022-07-29T05:55:03;10.65;;;4.65;;
16804;SDS011;8520;50.102;20.010;2022-07-29T05:57:52;15.85;;;5.72;;
16804;SDS011;8520;50.102;20.010;2022-07-29T06:00:40;8.95;;;4.40;;
16804;SDS011;8520;50.102;20.010;2022-07-29T06:03:29;21.05;;;5.40;;
16804;SDS011;8520;50.102;20.010;2022-07-29T06:06:17;6.38;;;4.15;;
16804;SDS011;8520;50.102;20.010;2022-07-29T06:09:07;7.32;;;4.45;;
16804;SDS011;8520;50.102;20.010;2022-07-29T06:11:58;12.90;;;5.50;;
16804;SDS011;8520;50.102;20.010;2022-07-29T06:14:47;6.53;;;4.57;;
16804;SDS011;8520;50.102;20.010;2022-07-29T06:17:39;8.48;;;4.85;;
16804;SDS011;8520;50.102;20.010;2022-07-29T06:20:46;7.15;;;3.95;;
16804;SDS011;8520;50.102;20.010;2022-07-29T06:23:35;6.53;;;3.80;;
16804;SDS011;8520;50.102;20.010;2022-07-29T06:26:26;15.02;;;5.10;;
16804;SDS011;8520;50.102;20.010;2022-07-29T06:29:17;13.52;;;4.82;;
16804;SDS011;8520;50.102;20.010;2022-07-29T06:32:05;18.50;;;4.90;;
16804;SDS011;8520;50.102;20.010;2022-07-29T06:34:55;8.93;;;4.68;;
16804;SDS011;8520;50.102;20.010;2022-07-29T06:38:04;6.82;;;4.20;;
16804;SDS011;8520;50.102;20.010;2022-07-29T06:41:12;9.82;;;6.10;;
16804;SDS011;8520;50.102;20.010;2022-07-29T06:44:04;14.88;;;5.60;;
16804;SDS011;8520;50.102;20.010;2022-07-29T06:46:52;8.43;;;5.07;;
16804;SDS011;8520;50.102;20.010;2022-07-29T06:49:41;17.83;;;5.90;;
16804;SDS011;8520;50.102;20.010;2022-07-29T06:52:30;9.85;;;4.70;;
16804;SDS011;8520;50.102;20.010;2022-07-29T06:55:18;5.60;;;4.30;;
16804;SDS011;8520;50.102;20.010;2022-07-29T06:58:11;6.50;;;4.15;;
16804;SDS011;8520;50.102;20.010;2022-07-29T07:01:03;6.72;;;4.25;;
16804;SDS011;8520;50.102;20.010;2022-07-29T07:03:53;5.40;;;4.80;;
16804;SDS011;8520;50.102;20.010;2022-07-29T07:06:41;7.13;;;4.60;;
16804;SDS011;8520;50.102;20.010;2022-07-29T07:09:30;6.22;;;4.38;;
16804;SDS011;8520;50.102;20.010;2022-07-29T07:12:26;11.80;;;4.50;;
16804;SDS011;8520;50.102;20.010;2022-07-29T07:15:15;7.88;;;4.20;;
16804;SDS011;8520;50.102;20.010;2022-07-29T07:18:05;7.50;;;3.92;;
16804;SDS011;8520;50.102;20.010;2022-07-29T07:20:54;4.20;;;3.85;;
16804;SDS011;8520;50.102;20.010;2022-07-29T07:23:43;6.00;;;3.72;;
16804;SDS011;8520;50.102;20.010;2022-07-29T07:26:32;6.05;;;4.35;;
16804;SDS011;8520;50.102;20.010;2022-07-29T07:29:20;4.50;;;4.00;;
16804;SDS011;8520;50.102;20.010;2022-07-29T07:32:08;4.97;;;3.90;;
16804;SDS011;8520;50.102;20.010;2022-07-29T07:34:58;5.38;;;4.22;;
16804;SDS011;8520;50.102;20.010;2022-07-29T07:37:47;5.25;;;4.55;;
16804;SDS011;8520;50.102;20.010;2022-07-29T07:40:35;5.70;;;4.00;;
16804;SDS011;8520;50.102;20.010;2022-07-29T07:43:24;4.95;;;3.95;;
16804;SDS011;8520;50.102;20.010;2022-07-29T07:46:12;6.10;;;4.18;;
16804;SDS011;8520;50.102;20.010;2022-07-29T07:49:01;5.90;;;4.40;;
16804;SDS011;8520;50.102;20.010;2022-07-29T07:51:51;6.70;;;4.25;;
16804;SDS011;8520;50.102;20.010;2022-07-29T07:54:39;4.57;;;4.18;;
16804;SDS011;8520;50.102;20.010;2022-07-29T07:57:28;4.57;;;4.18;;
16804;SDS011;8520;50.102;20.010;2022-07-29T08:00:16;6.88;;;4.30;;
16804;SDS011;8520;50.102;20.010;2022-07-29T08:03:08;4.93;;;4.38;;
16804;SDS011;8520;50.102;20.010;2022-07-29T08:06:03;7.72;;;4.72;;
16804;SDS011;8520;50.102;20.010;2022-07-29T08:08:53;22.15;;;6.43;;
16804;SDS011;8520;50.102;20.010;2022-07-29T08:11:42;53.00;;;9.95;;
16804;SDS011;8520;50.102;20.010;2022-07-29T08:14:37;11.02;;;5.30;;
16804;SDS011;8520;50.102;20.010;2022-07-29T08:17:26;6.65;;;4.35;;
16804;SDS011;8520;50.102;20.010;2022-07-29T08:20:15;6.13;;;3.78;;
16804;SDS011;8520;50.102;20.010;2022-07-29T08:23:03;4.78;;;4.28;;
16804;SDS011;8520;50.102;20.010;2022-07-29T08:25:54;5.07;;;3.78;;
16804;SDS011;8520;50.102;20.010;2022-07-29T08:28:43;10.52;;;4.50;;
16804;SDS011;8520;50.102;20.010;2022-07-29T08:31:32;7.00;;;5.05;;
16804;SDS011;8520;50.102;20.010;2022-07-29T08:34:22;6.85;;;4.22;;
16804;SDS011;8520;50.102;20.010;2022-07-29T08:37:13;7.22;;;4.13;;
16804;SDS011;8520;50.102;20.010;2022-07-29T08:40:02;5.30;;;3.80;;
16804;SDS011;8520;50.102;20.010;2022-07-29T08:42:54;5.32;;;3.78;;
16804;SDS011;8520;50.102;20.010;2022-07-29T08:45:43;15.23;;;4.63;;
16804;SDS011;8520;50.102;20.010;2022-07-29T08:48:34;23.13;;;5.70;;
16804;SDS011;8520;50.102;20.010;2022-07-29T08:51:24;5.32;;;3.70;;
16804;SDS011;8520;50.102;20.010;2022-07-29T08:54:16;4.22;;;3.53;;
16804;SDS011;8520;50.102;20.010;2022-07-29T08:57:05;4.57;;;4.18;;
16804;SDS011;8520;50.102;20.010;2022-07-29T08:59:56;7.60;;;3.55;;
16804;SDS011;8520;50.102;20.010;2022-07-29T09:02:55;6.63;;;3.90;;
16804;SDS011;8520;50.102;20.010;2022-07-29T09:05:46;4.38;;;3.10;;
16804;SDS011;8520;50.102;20.010;2022-07-29T09:08:35;4.13;;;3.75;;
16804;SDS011;8520;50.102;20.010;2022-07-29T09:11:24;9.70;;;3.90;;
16804;SDS011;8520;50.102;20.010;2022-07-29T09:14:12;13.13;;;4.53;;
16804;SDS011;8520;50.102;20.010;2022-07-29T09:17:02;4.72;;;3.65;;
16804;SDS011;8520;50.102;20.010;2022-07-29T09:19:51;6.05;;;4.18;;
16804;SDS011;8520;50.102;20.010;2022-07-29T09:22:55;4.03;;;3.63;;
16804;SDS011;8520;50.102;20.010;2022-07-29T09:25:44;7.53;;;3.10;;
16804;SDS011;8520;50.102;20.010;2022-07-29T09:28:33;3.67;;;3.40;;
16804;SDS011;8520;50.102;20.010;2022-07-29T09:31:25;4.38;;;3.92;;
16804;SDS011;8520;50.102;20.010;2022-07-29T09:34:22;5.00;;;3.30;;
16804;SDS011;8520;50.102;20.010;2022-07-29T09:37:12;6.53;;;3.80;;
16804;SDS011;8520;50.102;20.010;2022-07-29T09:40:14;8.63;;;4.18;;
16804;SDS011;8520;50.102;20.010;2022-07-29T09:43:09;9.38;;;4.50;;
16804;SDS011;8520;50.102;20.010;2022-07-29T09:46:08;7.68;;;3.95;;
16804;SDS011;8520;50.102;20.010;2022-07-29T09:49:07;13.05;;;5.45;;
16804;SDS011;8520;50.102;20.010;2022-07-29T09:52:02;4.53;;;4.10;;
16804;SDS011;8520;50.102;20.010;2022-07-29T09:54:52;4.15;;;3.80;;
16804;SDS011;8520;50.102;20.010;2022-07-29T09:57:42;5.68;;;3.92;;
16804;SDS011;8520;50.102;20.010;2022-07-29T10:00:31;5.43;;;4.35;;
16804;SDS011;8520;50.102;20.010;2022-07-29T10:03:30;5.28;;;3.60;;
16804;SDS011;8520;50.102;20.010;2022-07-29T10:06:18;6.28;;;4.15;;
16804;SDS011;8520;50.102;20.010;2022-07-29T10:09:08;11.40;;;4.30;;
16804;SDS011;8520;50.102;20.010;2022-07-29T10:12:04;6.00;;;3.88;;
16804;SDS011;8520;50.102;20.010;2022-07-29T10:14:54;8.65;;;4.20;;
16804;SDS011;8520;50.102;20.010;2022-07-29T10:17:43;7.15;;;3.55;;
16804;SDS011;8520;50.102;20.010;2022-07-29T10:20:32;3.97;;;3.67;;
16804;SDS011;8520;50.102;20.010;2022-07-29T10:23:22;4.07;;;3.70;;
16804;SDS011;8520;50.102;20.010;2022-07-29T10:26:13;5.60;;;3.47;;
16804;SDS011;8520;50.102;20.010;2022-07-29T10:29:02;4.13;;;3.63;;
16804;SDS011;8520;50.102;20.010;2022-07-29T10:31:55;5.10;;;4.70;;
16804;SDS011;8520;50.102;20.010;2022-07-29T10:44:49;5.22;;;3.38;;
16804;SDS011;8520;50.102;20.010;2022-07-29T10:47:39;5.28;;;3.70;;
16804;SDS011;8520;50.102;20.010;2022-07-29T10:50:28;5.55;;;3.80;;
16804;SDS011;8520;50.102;20.010;2022-07-29T10:53:47;6.47;;;3.53;;
16804;SDS011;8520;50.102;20.010;2022-07-29T10:56:37;4.50;;;3.50;;
16804;SDS011;8520;50.102;20.010;2022-07-29T10:59:31;9.50;;;3.88;;
16804;SDS011;8520;50.102;20.010;2022-07-29T11:02:41;4.15;;;3.80;;
16804;SDS011;8520;50.102;20.010;2022-07-29T11:05:55;4.63;;;4.22;;
16804;SDS011;8520;50.102;20.010;2022-07-29T11:08:46;5.45;;;4.50;;
16804;SDS011;8520;50.102;20.010;2022-07-29T11:12:14;4.07;;;3.75;;
16804;SDS011;8520;50.102;20.010;2022-07-29T11:22:31;6.93;;;3.75;;
16804;SDS011;8520;50.102;20.010;2022-07-29T11:25:21;8.32;;;3.95;;
16804;SDS011;8520;50.102;20.010;2022-07-29T11:28:29;5.55;;;3.70;;
16804;SDS011;8520;50.102;20.010;2022-07-29T11:31:30;4.22;;;3.92;;
16804;SDS011;8520;50.102;20.010;2022-07-29T11:34:22;3.90;;;3.60;;
16804;SDS011;8520;50.102;20.010;2022-07-29T11:37:32;5.70;;;3.83;;
16804;SDS011;8520;50.102;20.010;2022-07-29T11:40:31;5.25;;;3.50;;
16804;SDS011;8520;50.102;20.010;2022-07-29T11:46:45;6.70;;;3.80;;
16804;SDS011;8520;50.102;20.010;2022-07-29T11:49:35;6.00;;;4.13;;
16804;SDS011;8520;50.102;20.010;2022-07-29T11:52:34;4.50;;;3.80;;
16804;SDS011;8520;50.102;20.010;2022-07-29T11:55:35;5.05;;;4.53;;
16804;SDS011;8520;50.102;20.010;2022-07-29T11:58:37;4.28;;;3.83;;
16804;SDS011;8520;50.102;20.010;2022-07-29T12:01:26;5.68;;;3.90;;
16804;SDS011;8520;50.102;20.010;2022-07-29T12:04:16;5.72;;;4.20;;
16804;SDS011;8520;50.102;20.010;2022-07-29T12:07:05;5.15;;;4.75;;
16804;SDS011;8520;50.102;20.010;2022-07-29T12:09:54;5.60;;;4.05;;
16804;SDS011;8520;50.102;20.010;2022-07-29T12:12:42;5.18;;;3.90;;
16804;SDS011;8520;50.102;20.010;2022-07-29T12:15:39;10.32;;;3.97;;
16804;SDS011;8520;50.102;20.010;2022-07-29T12:18:33;4.30;;;3.88;;
16804;SDS011;8520;50.102;20.010;2022-07-29T12:21:22;6.60;;;4.50;;
16804;SDS011;8520;50.102;20.010;2022-07-29T12:24:14;4.55;;;4.18;;
16804;SDS011;8520;50.102;20.010;2022-07-29T12:27:08;13.65;;;5.20;;
16804;SDS011;8520;50.102;20.010;2022-07-29T12:29:57;5.97;;;4.20;;
16804;SDS011;8520;50.102;20.010;2022-07-29T12:32:48;10.15;;;4.20;;
16804;SDS011;8520;50.102;20.010;2022-07-29T12:35:36;10.02;;;5.07;;
16804;SDS011;8520;50.102;20.010;2022-07-29T12:38:26;5.38;;;3.97;;
16804;SDS011;8520;50.102;20.010;2022-07-29T12:41:16;4.45;;;4.05;;
16804;SDS011;8520;50.102;20.010;2022-07-29T12:44:04;5.85;;;4.13;;
16804;SDS011;8520;50.102;20.010;2022-07-29T12:47:01;5.40;;;5.00;;
16804;SDS011;8520;50.102;20.010;2022-07-29T12:49:50;10.45;;;4.88;;
16804;SDS011;8520;50.102;20.010;2022-07-29T12:52:54;6.15;;;5.50;;
16804;SDS011;8520;50.102;20.010;2022-07-29T12:55:57;5.32;;;4.30;;
16804;SDS011;8520;50.102;20.010;2022-07-29T12:59:10;14.45;;;6.63;;
16804;SDS011;8520;50.102;20.010;2022-07-29T13:02:00;11.52;;;6.90;;
16804;SDS011;8520;50.102;20.010;2022-07-29T13:04:55;8.50;;;5.05;;
16804;SDS011;8520;50.102;20.010;2022-07-29T13:07:44;10.02;;;5.65;;
16804;SDS011;8520;50.102;20.010;2022-07-29T13:10:43;4.70;;;4.30;;
16804;SDS011;8520;50.102;20.010;2022-07-29T13:13:33;8.32;;;4.35;;
16804;SDS011;8520;50.102;20.010;2022-07-29T13:16:21;9.18;;;4.95;;
16804;SDS011;8520;50.102;20.010;2022-07-29T13:19:11;22.80;;;6.50;;
16804;SDS011;8520;50.102;20.010;2022-07-29T13:22:00;16.00;;;6.18;;
16804;SDS011;8520;50.102;20.010;2022-07-29T13:24:49;15.57;;;5.97;;
16804;SDS011;8520;50.102;20.010;2022-07-29T13:27:38;11.52;;;5.80;;
16804;SDS011;8520;50.102;20.010;2022-07-29T13:30:28;12.25;;;5.18;;
16804;SDS011;8520;50.102;20.010;2022-07-29T13:33:17;12.05;;;4.47;;
16804;SDS011;8520;50.102;20.010;2022-07-29T13:36:06;4.90;;;4.50;;
16804;SDS011;8520;50.102;20.010;2022-07-29T13:38:54;13.23;;;5.25;;
16804;SDS011;8520;50.102;20.010;2022-07-29T13:41:43;19.90;;;6.45;;
16804;SDS011;8520;50.102;20.010;2022-07-29T13:44:31;13.52;;;5.00;;
16804;SDS011;8520;50.102;20.010;2022-07-29T13:47:21;6.07;;;4.30;;
16804;SDS011;8520;50.102;20.010;2022-07-29T13:50:18;9.98;;;4.65;;
16804;SDS011;8520;50.102;20.010;2022-07-29T13:53:07;11.60;;;4.78;;
16804;SDS011;8520;50.102;20.010;2022-07-29T13:56:04;4.40;;;4.10;;
16804;SDS011;8520;50.102;20.010;2022-07-29T13:58:53;4.38;;;3.97;;
16804;SDS011;8520;50.102;20.010;2022-07-29T14:01:42;15.43;;;4.82;;
16804;SDS011;8520;50.102;20.010;2022-07-29T14:04:33;15.85;;;5.20;;
16804;SDS011;8520;50.102;20.010;2022-07-29T14:07:25;10.30;;;4.90;;
16804;SDS011;8520;50.102;20.010;2022-07-29T14:10:13;30.25;;;7.07;;
16804;SDS011;8520;50.102;20.010;2022-07-29T14:13:06;28.65;;;7.50;;
16804;SDS011;8520;50.102;20.010;2022-07-29T14:16:11;7.85;;;5.53;;
16804;SDS011;8520;50.102;20.010;2022-07-29T14:19:00;8.82;;;4.95;;
16804;SDS011;8520;50.102;20.010;2022-07-29T14:21:49;5.18;;;4.32;;
16804;SDS011;8520;50.102;20.010;2022-07-29T14:24:38;6.80;;;4.50;;
16804;SDS011;8520;50.102;20.010;2022-07-29T14:27:28;10.55;;;8.25;;
16804;SDS011;8520;50.102;20.010;2022-07-29T14:30:24;4.85;;;4.30;;
16804;SDS011;8520;50.102;20.010;2022-07-29T14:33:12;4.95;;;4.63;;
16804;SDS011;8520;50.102;20.010;2022-07-29T14:36:01;7.13;;;4.57;;
16804;SDS011;8520;50.102;20.010;2022-07-29T14:38:51;5.63;;;4.32;;
16804;SDS011;8520;50.102;20.010;2022-07-29T14:41:40;4.93;;;4.18;;
16804;SDS011;8520;50.102;20.010;2022-07-29T14:44:28;8.63;;;4.38;;
16804;SDS011;8520;50.102;20.010;2022-07-29T14:47:18;4.45;;;4.13;;
16804;SDS011;8520;50.102;20.010;2022-07-29T14:50:07;4.45;;;4.05;;
16804;SDS011;8520;50.102;20.010;2022-07-29T14:52:56;5.93;;;5.43;;
16804;SDS011;8520;50.102;20.010;2022-07-29T14:55:46;4.68;;;4.28;;
16804;SDS011;8520;50.102;20.010;2022-07-29T14:58:34;5.35;;;4.95;;
16804;SDS011;8520;50.102;20.010;2022-07-29T15:01:34;6.63;;;5.18;;
16804;SDS011;8520;50.102;20.010;2022-07-29T15:04:23;5.13;;;4.55;;
16804;SDS011;8520;50.102;20.010;2022-07-29T15:07:12;4.45;;;4.03;;
16804;SDS011;8520;50.102;20.010;2022-07-29T15:10:00;4.68;;;4.38;;
16804;SDS011;8520;50.102;20.010;2022-07-29T15:12:50;4.40;;;4.00;;
16804;SDS011;8520;50.102;20.010;2022-07-29T15:15:39;5.28;;;4.03;;
16804;SDS011;8520;50.102;20.010;2022-07-29T15:18:28;5.10;;;4.57;;
16804;SDS011;8520;50.102;20.010;2022-07-29T15:21:17;4.78;;;4.35;;
16804;SDS011;8520;50.102;20.010;2022-07-29T15:24:06;4.25;;;4.00;;
16804;SDS011;8520;50.102;20.010;2022-07-29T15:26:55;4.95;;;4.55;;
16804;SDS011;8520;50.102;20.010;2022-07-29T15:29:45;4.35;;;4.03;;
16804;SDS011;8520;50.102;20.010;2022-07-29T15:32:33;6.18;;;5.47;;
16804;SDS011;8520;50.102;20.010;2022-07-29T15:35:21;7.32;;;5.70;;
16804;SDS011;8520;50.102;20.010;2022-07-29T15:38:10;6.13;;;4.15;;
16804;SDS011;8520;50.102;20.010;2022-07-29T15:40:58;4.82;;;4.35;;
16804;SDS011;8520;50.102;20.010;2022-07-29T15:43:47;4.68;;;4.20;;
16804;SDS011;8520;50.102;20.010;2022-07-29T15:46:37;5.88;;;4.88;;
16804;SDS011;8520;50.102;20.010;2022-07-29T15:49:43;4.47;;;4.18;;
16804;SDS011;8520;50.102;20.010;2022-07-29T15:52:35;5.13;;;4.72;;
16804;SDS011;8520;50.102;20.010;2022-07-29T15:55:26;10.20;;;4.57;;
16804;SDS011;8520;50.102;20.010;2022-07-29T15:58:15;8.73;;;5.22;;
16804;SDS011;8520;50.102;20.010;2022-07-29T16:01:04;5.63;;;5.13;;
16804;SDS011;8520;50.102;20.010;2022-07-29T16:03:54;9.50;;;5.20;;
16804;SDS011;8520;50.102;20.010;2022-07-29T16:06:42;4.63;;;4.32;;
16804;SDS011;8520;50.102;20.010;2022-07-29T16:09:31;6.10;;;5.20;;
16804;SDS011;8520;50.102;20.010;2022-07-29T16:12:20;5.00;;;4.57;;
16804;SDS011;8520;50.102;20.010;2022-07-29T16:15:08;5.97;;;4.85;;
16804;SDS011;8520;50.102;20.010;2022-07-29T16:17:57;7.78;;;7.18;;
16804;SDS011;8520;50.102;20.010;2022-07-29T16:20:48;8.75;;;6.32;;
16804;SDS011;8520;50.102;20.010;2022-07-29T16:23:36;7.45;;;4.90;;
16804;SDS011;8520;50.102;20.010;2022-07-29T16:26:25;7.75;;;7.00;;
16804;SDS011;8520;50.102;20.010;2022-07-29T16:29:13;6.75;;;5.95;;
16804;SDS011;8520;50.102;20.010;2022-07-29T16:32:04;6.40;;;5.70;;
16804;SDS011;8520;50.102;20.010;2022-07-29T16:34:53;7.32;;;5.53;;
16804;SDS011;8520;50.102;20.010;2022-07-29T16:37:42;5.35;;;4.95;;
16804;SDS011;8520;50.102;20.010;2022-07-29T16:40:31;7.43;;;5.85;;
16804;SDS011;8520;50.102;20.010;2022-07-29T16:43:19;6.35;;;5.82;;
16804;SDS011;8520;50.102;20.010;2022-07-29T16:46:08;6.45;;;5.88;;
16804;SDS011;8520;50.102;20.010;2022-07-29T16:49:04;7.15;;;6.43;;
16804;SDS011;8520;50.102;20.010;2022-07-29T16:51:52;6.43;;;6.03;;
16804;SDS011;8520;50.102;20.010;2022-07-29T16:54:42;6.15;;;5.85;;
16804;SDS011;8520;50.102;20.010;2022-07-29T16:57:31;7.45;;;6.68;;
16804;SDS011;8520;50.102;20.010;2022-07-29T17:00:19;7.72;;;7.20;;
16804;SDS011;8520;50.102;20.010;2022-07-29T17:03:09;8.02;;;7.43;;
16804;SDS011;8520;50.102;20.010;2022-07-29T17:05:59;8.90;;;8.30;;
16804;SDS011;8520;50.102;20.010;2022-07-29T17:08:47;9.82;;;9.32;;
16804;SDS011;8520;50.102;20.010;2022-07-29T17:11:37;11.10;;;10.25;;
16804;SDS011;8520;50.102;20.010;2022-07-29T17:14:40;12.38;;;11.75;;
16804;SDS011;8520;50.102;20.010;2022-07-29T17:17:29;12.82;;;12.13;;
16804;SDS011;8520;50.102;20.010;2022-07-29T17:20:38;13.93;;;13.15;;
16804;SDS011;8520;50.102;20.010;2022-07-29T17:23:27;15.18;;;14.27;;
16804;SDS011;8520;50.102;20.010;2022-07-29T17:26:16;17.00;;;16.20;;
16804;SDS011;8520;50.102;20.010;2022-07-29T17:29:06;17.13;;;16.25;;
16804;SDS011;8520;50.102;20.010;2022-07-29T17:31:56;18.48;;;17.48;;
16804;SDS011;8520;50.102;20.010;2022-07-29T17:34:46;20.00;;;19.00;;